Time;durP1;ratioP1;P1;durP2;ratioP2;P2;SDS_P1;SDS_P2;PMS_P1;PMS_P2;Temp;Humidity;BMP_temperature;BMP_pressure;BME280_temperature;BME280_humidity;BME280_pressure;Samples;Min_cycle;Max_cycle;Signal;HPM_P1;HPM_P2
2022/01/25 00:24:16;;;;;;;0.40;0.30;;;;;;;5.28;100.00;102769.34;5052551;28;20444;-71
2022/01/25 00:24:24;;;;;;;0.40;0.27;;;;;;;5.24;100.00;102770.81;5052471;28;20516;-71
2022/01/25 00:29:57;;;;;;;0.40;0.20;;;;;;;5.29;100.00;102771.00;5036757;28;20489;-71
2022/01/25 00:32:24;;;;;;;0.40;0.27;;;;;;;5.27;100.00;102770.41;5052750;28;20492;-71
2022/01/25 00:34:51;;;;;;;0.40;0.30;;;;;;;5.34;100.00;102774.91;5052704;28;20442;-71
2022/01/25 00:37:18;;;;;;;0.40;0.30;;;;;;;5.34;100.00;102766.84;5052575;28;20473;-71
2022/01/25 00:39:45;;;;;;;0.40;0.30;;;;;;;5.34;100.00;102762.28;5052557;28;20492;-71
2022/01/25 00:42:11;;;;;;;0.40;0.20;;;;;;;5.39;100.00;102758.97;5052642;28;20446;-71
2022/01/25 00:44:40;;;;;;;0.40;0.30;;;;;;;5.43;100.00;102757.50;5052359;28;20504;-71
2022/01/25 00:47:08;;;;;;;0.40;0.20;;;;;;;5.40;100.00;102755.25;5052550;28;20473;-71
2022/01/25 00:49:37;;;;;;;0.50;0.40;;;;;;;5.41;100.00;102746.16;5052475;28;20482;-71
2022/01/25 00:52:18;;;;;;;0.40;0.30;;;;;;;5.41;100.00;102751.53;5053379;28;20452;-71
2022/01/25 00:54:44;;;;;;;0.40;0.30;;;;;;;5.35;100.00;102753.19;5056177;28;20441;-71
2022/01/25 00:57:11;;;;;;;0.40;0.30;;;;;;;5.36;100.00;102740.56;5056085;28;20458;-71
2022/01/25 00:59:37;;;;;;;0.40;0.30;;;;;;;5.36;100.00;102749.50;5055791;28;20494;-71
2022/01/25 01:02:06;;;;;;;0.40;0.30;;;;;;;5.39;100.00;102748.22;5055769;28;20438;-71
2022/01/25 01:04:34;;;;;;;0.60;0.40;;;;;;;5.40;100.00;102745.34;5055989;28;20449;-71
2022/01/25 01:07:02;;;;;;;0.40;0.30;;;;;;;5.43;100.00;102738.69;5055914;28;20616;-71
2022/01/25 01:09:31;;;;;;;0.40;0.20;;;;;;;5.37;100.00;102740.38;5055795;28;20486;-71
2022/01/25 01:12:02;;;;;;;0.40;0.30;;;;;;;5.27;100.00;102740.84;5055844;28;20453;-71
2022/01/25 01:14:50;;;;;;;0.40;0.30;;;;;;;5.35;100.00;102736.25;5055609;28;20430;-72
2022/01/25 01:17:48;;;;;;;0.40;0.30;;;;;;;5.39;100.00;102748.22;5055462;28;20968;-73
2022/01/25 01:29:08;;;;;;;0.40;0.30;;;;;;;5.33;100.00;102728.41;5039066;28;21041;-71
2022/01/25 01:31:50;;;;;;;0.40;0.20;;;;;;;5.31;100.00;102725.09;5055534;28;20426;-74
2022/01/25 01:37:37;;;;;;;0.67;0.67;;;;;;;5.26;100.00;102739.16;5090963;28;20526;-73
2022/01/25 01:40:35;;;;;;;0.40;0.30;;;;;;;5.21;100.00;102732.78;5090672;28;20440;-73
2022/01/25 01:43:20;;;;;;;0.40;0.30;;;;;;;5.14;100.00;102734.69;5090404;28;20892;-74
2022/01/25 01:45:56;;;;;;;0.40;0.30;;;;;;;5.11;100.00;102733.25;5090327;28;20989;-74
2022/01/25 01:48:31;;;;;;;0.40;0.30;;;;;;;5.06;100.00;102727.69;5090701;28;20439;-73
2022/01/25 01:51:04;;;;;;;0.40;0.30;;;;;;;5.15;100.00;102736.34;5090334;28;20787;-73
2022/01/25 01:53:33;;;;;;;4.87;4.57;;;;;;;5.10;100.00;102728.09;5090577;28;20437;-73
2022/01/25 01:55:59;;;;;;;0.40;0.20;;;;;;;5.06;100.00;102725.00;5090114;28;21059;-73
2022/01/25 01:58:26;;;;;;;0.40;0.30;;;;;;;5.01;100.00;102735.53;5090526;28;20440;-74
2022/01/25 02:00:53;;;;;;;0.40;0.30;;;;;;;5.00;100.00;102734.72;5090095;28;20555;-73
2022/01/25 02:03:20;;;;;;;0.40;0.30;;;;;;;5.01;100.00;102735.53;5090386;28;20432;-73
2022/01/25 02:05:47;;;;;;;0.40;0.30;;;;;;;4.89;100.00;102731.84;5090251;28;20487;-74
2022/01/25 02:08:13;;;;;;;18.77;9.23;;;;;;;4.81;100.00;102730.19;5090292;28;20444;-73
2022/01/25 02:10:41;;;;;;;0.40;0.20;;;;;;;4.86;100.00;102721.53;5090235;28;20454;-73
2022/01/25 02:13:10;;;;;;;0.40;0.30;;;;;;;4.89;100.00;102715.75;5090069;28;20428;-74
2022/01/25 02:15:38;;;;;;;0.40;0.30;;;;;;;4.72;100.00;102716.16;5089696;28;20488;-74
2022/01/25 02:23:36;;;;;;;0.40;0.30;;;;;;;4.80;100.00;102717.81;5089810;28;20404;-74
2022/01/25 02:26:06;;;;;;;0.40;0.30;;;;;;;4.71;100.00;102714.53;5089924;28;20830;-73
2022/01/25 02:28:35;;;;;;;0.40;0.20;;;;;;;4.70;100.00;102704.00;5089941;28;20425;-73
2022/01/25 02:31:03;;;;;;;0.40;0.33;;;;;;;4.70;100.00;102712.06;5089868;28;20445;-74
2022/01/25 02:33:30;;;;;;;0.40;0.30;;;;;;;4.69;100.00;102718.44;5089594;28;20937;-73
2022/01/25 02:36:00;;;;;;;0.40;0.30;;;;;;;4.60;100.00;102712.47;5089472;28;20493;-73
2022/01/25 02:38:31;;;;;;;0.40;0.23;;;;;;;4.55;100.00;102705.03;5089491;28;20960;-73
2022/01/25 02:40:58;;;;;;;0.40;0.30;;;;;;;4.39;100.00;102718.91;5089218;28;20460;-74
2022/01/25 02:43:26;;;;;;;0.40;0.20;;;;;;;4.36;100.00;102721.16;5089656;28;20472;-73
2022/01/25 02:46:18;;;;;;;0.40;0.20;;;;;;;4.29;100.00;102705.91;5089525;28;20602;-73
2022/01/25 02:48:52;;;;;;;0.47;0.33;;;;;;;4.28;100.00;102698.03;5075246;28;20841;-73
2022/01/25 02:51:20;;;;;;;0.50;0.40;;;;;;;4.25;100.00;102693.94;5075984;28;20500;-73
2022/01/25 02:53:47;;;;;;;0.50;0.30;;;;;;;4.33;100.00;102700.94;5075967;28;20434;-73
2022/01/25 02:56:15;;;;;;;0.40;0.20;;;;;;;4.40;100.00;102693.72;5075753;28;20889;-73
2022/01/25 02:58:41;;;;;;;0.40;0.23;;;;;;;4.46;100.00;102694.75;5075563;28;20473;-73
2022/01/25 03:01:08;;;;;;;0.40;0.30;;;;;;;4.51;100.00;102687.69;5075788;28;20442;-73
2022/01/25 03:03:34;;;;;;;0.40;0.30;;;;;;;4.53;100.00;102692.88;5075781;28;20441;-73
2022/01/25 03:06:02;;;;;;;0.40;0.20;;;;;;;4.56;100.00;102689.78;5075633;28;20526;-73
2022/01/25 03:08:29;;;;;;;0.40;0.30;;;;;;;4.57;100.00;102685.25;5075777;28;20823;-72
2022/01/25 03:10:56;;;;;;;0.40;0.23;;;;;;;4.54;100.00;102689.16;5075668;28;20440;-73
2022/01/25 03:13:28;;;;;;;0.40;0.30;;;;;;;4.52;100.00;102691.25;5075744;28;20448;-73
2022/01/25 03:16:00;;;;;;;0.40;0.27;;;;;;;4.53;100.00;102695.56;5075091;28;21096;-73
2022/01/25 03:18:40;;;;;;;1.30;1.23;;;;;;;4.40;100.00;102696.41;5075556;28;20438;-73
2022/01/25 03:21:34;;;;;;;0.40;0.20;;;;;;;4.39;100.00;102691.25;5075424;28;20483;-72
2022/01/25 03:24:03;;;;;;;0.40;0.20;;;;;;;4.41;100.00;102679.25;5075429;28;20440;-73
2022/01/25 03:26:30;;;;;;;0.40;0.20;;;;;;;4.42;100.00;102688.94;5074952;28;20958;-74
2022/01/25 03:28:57;;;;;;;0.40;0.30;;;;;;;4.39;100.00;102684.03;5075298;28;20444;-73
2022/01/25 03:31:24;;;;;;;0.50;0.50;;;;;;;4.30;100.00;102682.59;5075247;28;20441;-73
2022/01/25 03:33:51;;;;;;;0.40;0.20;;;;;;;4.30;100.00;102680.72;5075195;28;20507;-74
2022/01/25 03:36:17;;;;;;;0.40;0.20;;;;;;;4.29;100.00;102676.41;5074643;28;20485;-73
2022/01/25 03:38:44;;;;;;;0.40;0.30;;;;;;;4.35;100.00;102684.66;5075084;28;20437;-73
2022/01/25 03:41:14;;;;;;;0.40;0.30;;;;;;;4.38;100.00;102697.63;5075022;28;20446;-73
2022/01/25 03:43:41;;;;;;;0.40;0.30;;;;;;;4.40;100.00;102691.03;5074720;28;20437;-73
2022/01/25 03:46:09;;;;;;;0.50;0.40;;;;;;;4.41;100.00;102689.16;5074531;28;20998;-73
2022/01/25 03:51:20;;;;;;;0.40;0.30;;;;;;;4.43;100.00;102684.44;5074734;28;20401;-73
2022/01/25 03:53:46;;;;;;;0.40;0.20;;;;;;;4.39;100.00;102686.72;5074793;28;20437;-73
2022/01/25 03:56:14;;;;;;;0.40;0.30;;;;;;;4.39;100.00;102691.25;5074556;28;20508;-73
2022/01/25 03:58:41;;;;;;;0.50;0.30;;;;;;;4.42;100.00;102690.81;5073391;28;20958;-73
2022/01/25 04:01:07;;;;;;;0.40;0.30;;;;;;;4.41;100.00;102678.44;5074609;28;20433;-73
2022/01/25 04:03:38;;;;;;;0.40;0.30;;;;;;;4.48;100.00;102684.63;5074563;28;20448;-73
2022/01/25 04:06:05;;;;;;;0.40;0.30;;;;;;;4.51;100.00;102676.16;5074491;28;20467;-73
2022/01/25 04:08:35;;;;;;;0.40;0.20;;;;;;;4.50;100.00;102678.00;5074463;28;20449;-73
2022/01/25 04:11:02;;;;;;;1.07;1.07;;;;;;;4.44;100.00;102669.97;5074415;28;20429;-74
2022/01/25 04:13:29;;;;;;;1.90;1.80;;;;;;;4.45;100.00;102671.63;5074415;28;20441;-73
2022/01/25 04:15:58;;;;;;;0.40;0.30;;;;;;;4.46;100.00;102666.03;5073859;28;21008;-73
2022/01/25 04:18:31;;;;;;;0.50;0.30;;;;;;;4.41;100.00;102659.66;5074305;28;20445;-74
2022/01/25 04:21:13;;;;;;;0.40;0.20;;;;;;;4.43;100.00;102662.97;5074213;28;20451;-74
2022/01/25 04:26:23;;;;;;;0.40;0.30;;;;;;;4.39;100.00;102645.63;5073885;28;20440;-74
2022/01/25 04:28:51;;;;;;;2.10;2.00;;;;;;;4.40;100.00;102652.66;5074072;28;20436;-73
2022/01/25 04:31:19;;;;;;;0.40;0.30;;;;;;;4.40;100.00;102641.91;5074172;28;20445;-73
2022/01/25 04:34:06;;;;;;;0.40;0.20;;;;;;;4.39;100.00;102635.72;5073970;28;20471;-73
2022/01/25 04:36:56;;;;;;;0.40;0.20;;;;;;;4.36;100.00;102638.00;5073246;28;20556;-73
2022/01/25 04:50:35;;;;;;;0.40;0.27;;;;;;;4.37;100.00;102645.00;5073485;28;20818;-75
2022/01/25 04:53:10;;;;;;;0.40;0.20;;;;;;;4.34;100.00;102650.78;5073823;28;20524;-75
2022/01/25 04:55:42;;;;;;;0.40;0.30;;;;;;;4.40;100.00;102642.75;5073535;28;20461;-74
2022/01/25 04:58:15;;;;;;;0.40;0.20;;;;;;;4.39;100.00;102645.63;5073545;28;20429;-74
2022/01/25 05:00:45;;;;;;;0.40;0.27;;;;;;;4.34;100.00;102640.06;5073618;28;20437;-74
2022/01/25 05:03:16;;;;;;;0.40;0.30;;;;;;;4.32;100.00;102637.59;5073593;28;20425;-74
2022/01/25 05:05:54;;;;;;;0.40;0.30;;;;;;;4.36;100.00;102646.88;5073547;28;20457;-74
2022/01/25 05:08:31;;;;;;;0.40;0.30;;;;;;;4.40;100.00;102656.16;5073647;28;20818;-74
2022/01/25 05:11:05;;;;;;;0.40;0.30;;;;;;;4.45;100.00;102653.66;5073226;28;20429;-74
2022/01/25 05:13:41;;;;;;;0.40;0.30;;;;;;;4.51;100.00;102650.13;5073453;28;20537;-74
2022/01/25 05:16:16;;;;;;;0.40;0.40;;;;;;;4.52;100.00;102651.00;5072989;28;20891;-74
2022/01/25 05:18:46;;;;;;;0.40;0.20;;;;;;;4.55;100.00;102659.41;5073399;28;20520;-74
2022/01/25 05:23:53;;;;;;;0.40;0.20;;;;;;;4.58;100.00;102655.50;5019950;28;20928;-72
2022/01/25 05:26:20;;;;;;;0.40;0.30;;;;;;;4.57;100.00;102663.78;5052835;28;21014;-72
2022/01/25 05:28:46;;;;;;;0.40;0.27;;;;;;;4.55;100.00;102662.09;5053198;28;20442;-72
2022/01/25 05:31:14;;;;;;;0.40;0.30;;;;;;;4.54;100.00;102655.09;5053381;28;20442;-71
2022/01/25 05:33:40;;;;;;;0.40;0.20;;;;;;;4.53;100.00;102666.06;5052890;28;20442;-71
2022/01/25 05:36:07;;;;;;;1.47;1.37;;;;;;;4.51;100.00;102662.72;5052436;28;20469;-71
2022/01/25 05:38:33;;;;;;;0.40;0.30;;;;;;;4.50;100.00;102661.09;5052828;28;20442;-71
2022/01/25 05:41:01;;;;;;;0.40;0.20;;;;;;;4.48;100.00;102665.84;5052866;28;20446;-71
2022/01/25 05:46:16;;;;;;;0.40;0.20;;;;;;;4.48;100.00;102665.84;5052558;28;20433;-72
2022/01/25 05:48:43;;;;;;;0.40;0.30;;;;;;;4.41;100.00;102670.38;5052824;28;20448;-72
2022/01/25 05:51:10;;;;;;;0.40;0.20;;;;;;;4.43;100.00;102668.34;5052921;28;20445;-72
2022/01/25 05:53:37;;;;;;;0.40;0.30;;;;;;;4.47;100.00;102664.19;5052865;28;20453;-74
2022/01/25 05:56:04;;;;;;;0.40;0.30;;;;;;;4.49;100.00;102667.50;5052754;28;20462;-73
2022/01/25 05:58:31;;;;;;;0.40;0.20;;;;;;;4.45;100.00;102661.72;5054281;28;20446;-73
2022/01/25 06:00:57;;;;;;;0.40;0.30;;;;;;;4.43;100.00;102663.78;5052922;28;20434;-73
2022/01/25 06:03:25;;;;;;;0.40;0.27;;;;;;;4.45;100.00;102677.00;5052888;28;20469;-71
2022/01/25 06:05:52;;;;;;;0.40;0.20;;;;;;;4.46;100.00;102668.72;5052839;28;20868;-73
2022/01/25 06:08:18;;;;;;;0.40;0.20;;;;;;;4.46;100.00;102671.41;5052827;28;20445;-71
2022/01/25 06:10:45;;;;;;;0.50;0.50;;;;;;;4.48;100.00;102665.84;5052801;28;20827;-71
2022/01/25 06:13:11;;;;;;;0.40;0.20;;;;;;;4.45;100.00;102656.34;5052651;28;20446;-71
2022/01/25 06:15:37;;;;;;;0.50;0.30;;;;;;;4.44;100.00;102662.75;5052484;28;20455;-71
2022/01/25 06:18:04;;;;;;;0.50;0.30;;;;;;;4.46;100.00;102670.59;5052368;28;20478;-71
2022/01/25 06:20:32;;;;;;;0.40;0.20;;;;;;;4.47;100.00;102672.22;5052690;28;20438;-71
2022/01/25 06:22:59;;;;;;;0.40;0.20;;;;;;;4.47;100.00;102675.75;5054823;28;20544;-71
2022/01/25 06:25:25;;;;;;;0.40;0.30;;;;;;;4.50;100.00;102674.50;5056159;28;20446;-71
2022/01/25 06:27:52;;;;;;;0.40;0.20;;;;;;;4.44;100.00;102665.44;5056459;28;20434;-71
2022/01/25 06:30:20;;;;;;;0.40;0.30;;;;;;;4.47;100.00;102669.53;5056350;28;20446;-71
2022/01/25 06:32:47;;;;;;;0.40;0.30;;;;;;;4.46;100.00;102675.94;5056328;28;20434;-71
2022/01/25 06:35:14;;;;;;;0.40;0.30;;;;;;;4.47;100.00;102674.91;5055989;28;20549;-71
2022/01/25 06:37:43;;;;;;;0.40;0.30;;;;;;;4.50;100.00;102674.50;5056053;28;20466;-71
2022/01/25 06:40:11;;;;;;;0.50;0.30;;;;;;;4.48;100.00;102669.34;5056181;28;20469;-71
2022/01/25 06:42:38;;;;;;;0.40;0.20;;;;;;;4.50;100.00;102664.59;5055847;28;21027;-71
2022/01/25 06:45:11;;;;;;;0.40;0.20;;;;;;;4.49;100.00;102667.50;5056123;28;20802;-71
2022/01/25 06:47:37;;;;;;;0.40;0.20;;;;;;;4.41;100.00;102660.47;5056076;28;20449;-71
2022/01/25 06:50:04;;;;;;;0.40;0.30;;;;;;;4.43;100.00;102657.63;5055733;28;20958;-71
2022/01/25 06:52:31;;;;;;;0.40;0.30;;;;;;;4.42;100.00;102661.31;5055983;28;20438;-71
2022/01/25 06:54:58;;;;;;;2.97;2.77;;;;;;;4.46;100.00;102667.91;5055905;28;20446;-72
2022/01/25 06:57:25;;;;;;;0.40;0.30;;;;;;;4.47;100.00;102669.53;5055737;28;20528;-73
2022/01/25 06:59:51;;;;;;;0.40;0.30;;;;;;;4.45;100.00;102677.81;5055548;28;20931;-73
2022/01/25 07:02:18;;;;;;;0.40;0.30;;;;;;;4.44;100.00;102680.72;5055679;28;20438;-72
2022/01/25 07:04:44;;;;;;;0.97;0.97;;;;;;;4.46;100.00;102674.09;5055682;28;20545;-73
2022/01/25 07:07:11;;;;;;;0.40;0.30;;;;;;;4.43;100.00;102673.72;5055568;28;20458;-70
2022/01/25 07:09:37;;;;;;;0.40;0.20;;;;;;;4.44;100.00;102669.97;5055634;28;20451;-73
2022/01/25 07:12:06;;;;;;;0.50;0.40;;;;;;;4.45;100.00;102671.63;5055619;28;20780;-72
2022/01/25 07:14:33;;;;;;;0.40;0.30;;;;;;;4.48;100.00;102676.59;5055545;28;20441;-76
2022/01/25 07:17:00;;;;;;;0.40;0.20;;;;;;;4.49;100.00;102672.88;5055377;28;20487;-69
2022/01/25 07:19:26;;;;;;;0.40;0.30;;;;;;;4.42;100.00;102675.53;5055438;28;20482;-72
2022/01/25 07:21:53;;;;;;;0.40;0.30;;;;;;;4.44;100.00;102678.03;5055411;28;20474;-71
2022/01/25 07:24:19;;;;;;;0.60;0.60;;;;;;;4.37;100.00;102674.53;5055156;28;20438;-72
2022/01/25 07:26:47;;;;;;;0.40;0.20;;;;;;;4.36;100.00;102679.06;5055265;28;20465;-72
2022/01/25 07:29:15;;;;;;;0.40;0.30;;;;;;;4.34;100.00;102680.28;5055285;28;20454;-71
2022/01/25 07:31:41;;;;;;;0.40;0.30;;;;;;;4.33;100.00;102690.19;5055209;28;20430;-73
2022/01/25 07:34:08;;;;;;;0.40;0.30;;;;;;;4.36;100.00;102681.75;5055137;28;20430;-72
2022/01/25 07:36:37;;;;;;;0.40;0.30;;;;;;;4.40;100.00;102687.53;5054531;28;20486;-73
2022/01/25 07:39:04;;;;;;;0.40;0.30;;;;;;;4.32;100.00;102674.31;5054810;28;20826;-73
2022/01/25 07:41:30;;;;;;;0.40;0.30;;;;;;;4.33;100.00;102682.16;5055066;28;20445;-73
2022/01/25 07:43:59;;;;;;;0.67;0.67;;;;;;;4.35;100.00;102682.78;5054729;28;20442;-73
2022/01/25 07:46:26;;;;;;;0.40;0.20;;;;;;;4.36;100.00;102680.94;5054884;28;20462;-73
2022/01/25 07:48:53;;;;;;;0.50;0.40;;;;;;;4.31;100.00;102681.56;5054950;28;20445;-73
2022/01/25 07:51:20;;;;;;;0.40;0.30;;;;;;;4.35;100.00;102682.78;5054611;28;20443;-72
2022/01/25 07:53:46;;;;;;;0.40;0.20;;;;;;;4.34;100.00;102681.16;5054788;28;20450;-72
2022/01/25 07:56:13;;;;;;;0.40;0.30;;;;;;;4.26;100.00;102674.13;5054419;28;20974;-72
2022/01/25 07:58:39;;;;;;;0.40;0.30;;;;;;;4.28;100.00;102671.22;5054710;28;20486;-73
2022/01/25 08:01:06;;;;;;;0.40;0.30;;;;;;;4.26;100.00;102674.13;5054750;28;20442;-71
2022/01/25 08:03:34;;;;;;;0.40;0.30;;;;;;;4.23;100.00;102682.56;5054671;28;20449;-72
2022/01/25 08:06:01;;;;;;;0.40;0.30;;;;;;;4.21;100.00;102683.84;5054293;28;20971;-72
2022/01/25 08:08:27;;;;;;;0.40;0.20;;;;;;;4.23;100.00;102674.53;5054549;28;20438;-72
2022/01/25 08:10:54;;;;;;;0.47;0.27;;;;;;;4.25;100.00;102663.59;5072847;28;20465;-72
2022/01/25 08:13:20;;;;;;;5.30;3.50;;;;;;;4.28;100.00;102658.63;5074341;28;20452;-72
2022/01/25 08:15:48;;;;;;;0.40;0.20;;;;;;;4.29;100.00;102663.00;5074104;28;20480;-72
2022/01/25 08:18:15;;;;;;;0.40;0.30;;;;;;;4.34;100.00;102653.47;5074271;28;20484;-72
2022/01/25 08:20:43;;;;;;;3.23;1.60;;;;;;;4.35;100.00;102665.88;5074254;28;20806;-71
2022/01/25 08:23:09;;;;;;;0.60;0.60;;;;;;;4.39;100.00;102667.94;5074130;28;20537;-72
2022/01/25 08:25:36;;;;;;;0.50;0.30;;;;;;;4.43;100.00;102671.03;5074161;28;20468;-72
2022/01/25 08:28:03;;;;;;;0.40;0.30;;;;;;;4.45;100.00;102679.69;5074255;28;20452;-71
2022/01/25 08:30:29;;;;;;;0.40;0.20;;;;;;;4.47;100.00;102670.41;5074093;28;20441;-71
2022/01/25 08:32:56;;;;;;;1.37;1.37;;;;;;;4.47;100.00;102673.09;5074105;28;20527;-73
2022/01/25 08:35:23;;;;;;;3.13;2.93;;;;;;;4.50;100.00;102674.50;5073760;28;20539;-72
2022/01/25 08:37:51;;;;;;;0.40;0.20;;;;;;;4.44;100.00;102673.50;5073990;28;20503;-71
2022/01/25 08:40:18;;;;;;;0.47;0.30;;;;;;;4.42;100.00;102680.09;5073949;28;20437;-72
2022/01/25 08:42:44;;;;;;;0.50;0.30;;;;;;;4.38;100.00;102676.16;5073934;28;20528;-72
2022/01/25 08:45:12;;;;;;;0.50;0.50;;;;;;;4.40;100.00;102682.16;5073397;28;20541;-72
2022/01/25 08:47:40;;;;;;;0.40;0.30;;;;;;;4.45;100.00;102677.81;5073797;28;20524;-72
2022/01/25 08:50:09;;;;;;;0.40;0.30;;;;;;;4.52;100.00;102672.47;5073749;28;20598;-72
2022/01/25 08:52:35;;;;;;;0.40;0.20;;;;;;;4.51;100.00;102681.50;5073451;28;20465;-73
2022/01/25 08:55:04;;;;;;;0.40;0.30;;;;;;;4.51;100.00;102676.97;5073710;28;20441;-73
2022/01/25 08:57:30;;;;;;;0.40;0.30;;;;;;;4.47;100.00;102675.75;5073425;28;20481;-73
2022/01/25 08:59:56;;;;;;;0.40;0.30;;;;;;;4.52;100.00;102672.47;5073688;28;20444;-73
2022/01/25 09:02:23;;;;;;;0.40;0.30;;;;;;;4.58;100.00;102671.59;5073624;28;20818;-73
2022/01/25 09:04:50;;;;;;;0.70;0.70;;;;;;;4.60;100.00;102658.78;5064285;28;20457;-73
2022/01/25 09:07:16;;;;;;;0.40;0.20;;;;;;;4.59;100.00;102662.50;5053319;28;20462;-73
2022/01/25 09:09:43;;;;;;;0.40;0.30;;;;;;;4.57;100.00;102659.22;5053494;28;20791;-73
2022/01/25 09:12:11;;;;;;;0.40;0.20;;;;;;;4.60;100.00;102666.84;5053454;28;20477;-73
2022/01/25 09:14:38;;;;;;;0.40;0.30;;;;;;;4.63;100.00;102662.94;5053468;28;20431;-73
2022/01/25 09:17:07;;;;;;;0.40;0.20;;;;;;;4.61;100.00;102660.47;5053241;28;20462;-72
2022/01/25 09:19:35;;;;;;;0.40;0.20;;;;;;;4.61;100.00;102659.66;5053344;28;20453;-73
2022/01/25 09:22:01;;;;;;;0.40;0.20;;;;;;;4.66;100.00;102662.53;5053327;28;20529;-73
2022/01/25 09:24:28;;;;;;;0.40;0.20;;;;;;;4.68;100.00;102666.63;5053251;28;20451;-73
2022/01/25 09:26:54;;;;;;;0.40;0.20;;;;;;;4.70;100.00;102667.25;5052890;28;20999;-73
2022/01/25 09:29:22;;;;;;;0.40;0.20;;;;;;;4.67;100.00;102666.84;5052904;28;20963;-73
2022/01/25 09:31:49;;;;;;;0.40;0.20;;;;;;;4.75;100.00;102669.31;5052874;28;21005;-71
2022/01/25 09:34:16;;;;;;;0.40;0.20;;;;;;;4.75;100.00;102667.44;5052855;28;20940;-72
2022/01/25 09:36:42;;;;;;;0.40;0.30;;;;;;;4.76;100.00;102662.91;5052702;28;21077;-73
2022/01/25 09:39:09;;;;;;;0.40;0.30;;;;;;;4.75;100.00;102663.94;5053079;28;20528;-73
2022/01/25 09:41:35;;;;;;;0.40;0.20;;;;;;;4.73;100.00;102661.44;5053117;28;20446;-73
2022/01/25 09:44:02;;;;;;;0.40;0.30;;;;;;;4.69;100.00;102651.34;5053084;28;20825;-73
2022/01/25 09:46:30;;;;;;;0.40;0.20;;;;;;;4.72;100.00;102650.94;5052958;28;20487;-73
2022/01/25 09:48:56;;;;;;;0.40;0.20;;;;;;;4.73;100.00;102663.31;5052764;28;20957;-73
2022/01/25 09:51:25;;;;;;;0.40;0.20;;;;;;;4.76;100.00;102658.34;5053058;28;20496;-73
2022/01/25 09:53:52;;;;;;;0.40;0.30;;;;;;;4.81;100.00;102663.09;5053068;28;20446;-73
2022/01/25 09:56:18;;;;;;;0.40;0.30;;;;;;;4.86;100.00;102665.13;5052844;28;20862;-73
2022/01/25 09:58:45;;;;;;;0.40;0.30;;;;;;;4.92;100.00;102673.19;5056436;28;20505;-73
2022/01/25 10:01:12;;;;;;;0.40;0.20;;;;;;;4.92;100.00;102664.31;5057000;28;20445;-72
2022/01/25 10:03:42;;;;;;;1.83;1.73;;;;;;;4.90;100.00;102658.31;5056938;28;20486;-73
2022/01/25 10:06:12;;;;;;;0.40;0.20;;;;;;;4.91;100.00;102665.31;5056510;28;21014;-72
2022/01/25 10:08:39;;;;;;;0.40;0.30;;;;;;;4.88;100.00;102663.09;5056830;28;20445;-73
2022/01/25 10:11:08;;;;;;;0.60;0.30;;;;;;;4.84;100.00;102659.16;5056819;28;20442;-73
2022/01/25 10:13:36;;;;;;;0.40;0.20;;;;;;;4.86;100.00;102655.22;5056681;28;20445;-73
2022/01/25 10:16:06;;;;;;;2.20;2.10;;;;;;;4.86;100.00;102659.75;5056307;28;21004;-73
2022/01/25 10:18:42;;;;;;;0.40;0.23;;;;;;;4.79;100.00;102652.56;5056531;28;20489;-73
2022/01/25 10:21:15;;;;;;;0.40;0.20;;;;;;;4.79;100.00;102657.94;5056660;28;20422;-73
2022/01/25 10:23:59;;;;;;;0.40;0.27;;;;;;;4.75;100.00;102648.66;5056254;28;20429;-72
2022/01/25 10:26:26;;;;;;;0.40;0.20;;;;;;;4.76;100.00;102641.41;5056443;28;20462;-72
2022/01/25 10:28:52;;;;;;;0.40;0.30;;;;;;;4.78;100.00;102648.25;5056182;28;20988;-73
2022/01/25 10:31:19;;;;;;;0.40;0.20;;;;;;;4.77;100.00;102641.19;5056037;28;20964;-73
2022/01/25 10:33:53;;;;;;;1.43;1.40;;;;;;;4.77;100.00;102638.50;5056249;28;20849;-73
2022/01/25 10:36:22;;;;;;;0.40;0.20;;;;;;;4.83;100.00;102647.59;5055694;28;21085;-73
2022/01/25 10:38:50;;;;;;;0.40;0.20;;;;;;;4.85;100.00;102644.69;5055823;28;21003;-73
2022/01/25 10:41:19;;;;;;;0.40;0.30;;;;;;;4.84;100.00;102648.44;5056121;28;20430;-72
2022/01/25 10:43:48;;;;;;;0.40;0.20;;;;;;;4.85;100.00;102650.06;5056223;28;20445;-72
2022/01/25 10:46:22;;;;;;;0.40;0.20;;;;;;;4.93;100.00;102652.53;5056103;28;20467;-73
2022/01/25 10:48:52;;;;;;;0.40;0.30;;;;;;;5.00;100.00;102642.56;5056078;28;20520;-73
2022/01/25 10:51:23;;;;;;;0.40;0.20;;;;;;;4.99;100.00;102643.59;5055988;28;20449;-73
2022/01/25 10:54:01;;;;;;;0.40;0.30;;;;;;;4.95;100.00;102639.69;5056012;28;20430;-72
2022/01/25 10:56:34;;;;;;;0.40;0.30;;;;;;;4.90;100.00;102639.50;5055825;28;20512;-72
2022/01/25 10:59:02;;;;;;;2.30;2.00;;;;;;;4.80;100.00;102642.66;5056035;28;20469;-73
2022/01/25 11:01:32;;;;;;;0.40;0.30;;;;;;;4.85;100.00;102637.47;5055746;28;20446;-73
2022/01/25 11:04:11;;;;;;;1.07;1.07;;;;;;;4.92;100.00;102632.91;5056505;28;20434;-74
2022/01/25 11:06:38;;;;;;;0.40;0.20;;;;;;;4.98;100.00;102633.91;5056314;28;20471;-73
2022/01/25 11:09:07;;;;;;;0.40;0.30;;;;;;;4.97;100.00;102626.91;5055041;28;20441;-70
2022/01/25 11:11:37;;;;;;;0.40;0.30;;;;;;;5.06;100.00;102620.25;5055273;28;20914;-72
2022/01/25 11:16:48;;;;;;;0.40;0.20;;;;;;;5.07;100.00;102627.25;5074791;28;20461;-73
2022/01/25 11:19:16;;;;;;;0.40;0.30;;;;;;;5.07;100.00;102613.81;5075136;28;20517;-72
2022/01/25 11:21:44;;;;;;;0.40;0.30;;;;;;;5.12;100.00;102608.63;5075523;28;20468;-72
2022/01/25 11:24:13;;;;;;;0.40;0.30;;;;;;;5.12;100.00;102608.63;5075448;28;20437;-73
2022/01/25 11:26:41;;;;;;;0.40;0.30;;;;;;;5.11;100.00;102606.19;5075269;28;20476;-72
2022/01/25 11:29:08;;;;;;;0.40;0.20;;;;;;;5.15;100.00;102602.84;5075031;28;20931;-72
2022/01/25 11:31:37;;;;;;;0.40;0.20;;;;;;;5.19;100.00;102601.38;5075293;28;20437;-72
2022/01/25 11:34:08;;;;;;;0.40;0.20;;;;;;;5.32;100.00;102601.31;5074918;28;20445;-71
2022/01/25 11:36:45;;;;;;;0.83;0.83;;;;;;;5.47;100.00;102595.63;5075016;28;20481;-72
2022/01/25 11:39:12;;;;;;;0.40;0.30;;;;;;;5.54;100.00;102599.09;5074789;28;20969;-71
2022/01/25 11:41:42;;;;;;;0.40;0.27;;;;;;;5.67;100.00;102600.88;5075082;28;20468;-69
2022/01/25 11:44:10;;;;;;;0.40;0.27;;;;;;;5.67;100.00;102602.75;5075065;28;20449;-72
2022/01/25 11:46:38;;;;;;;0.40;0.30;;;;;;;5.68;100.00;102607.88;5074973;28;20874;-72
2022/01/25 11:49:06;;;;;;;2.30;2.10;;;;;;;5.72;100.00;102610.97;5074942;28;20440;-72
2022/01/25 11:51:34;;;;;;;0.90;0.90;;;;;;;5.75;100.00;102613.19;5074897;28;20487;-73
2022/01/25 11:54:04;;;;;;;0.40;0.27;;;;;;;5.71;100.00;102611.97;5074873;28;20430;-72
2022/01/25 11:56:31;;;;;;;0.40;0.30;;;;;;;5.67;100.00;102611.63;5074528;28;21028;-70
2022/01/25 11:59:00;;;;;;;0.40;0.30;;;;;;;5.66;100.00;102609.94;5076002;28;20503;-72
2022/01/25 12:01:28;;;;;;;0.40;0.30;;;;;;;5.63;100.00;102610.41;5074456;28;20442;-70
2022/01/25 12:03:58;;;;;;;0.40;0.30;;;;;;;5.66;100.00;102607.25;5074545;28;20520;-69
2022/01/25 12:06:28;;;;;;;0.40;0.30;;;;;;;5.59;100.00;102606.50;5074164;28;20556;-71
2022/01/25 12:09:15;;;;;;;0.40;0.20;;;;;;;5.61;100.00;102600.91;5074837;28;20445;-71
2022/01/25 12:11:45;;;;;;;0.40;0.27;;;;;;;5.63;100.00;102598.84;5074465;28;20414;-71
2022/01/25 12:14:19;;;;;;;4.40;4.10;;;;;;;5.66;100.00;102596.50;5074369;28;20440;-71
2022/01/25 12:16:47;;;;;;;0.40;0.27;;;;;;;5.68;100.00;102596.31;5063832;28;20481;-71
2022/01/25 12:19:15;;;;;;;0.50;0.50;;;;;;;5.64;100.00;102595.91;5053517;28;20895;-71
2022/01/25 12:21:59;;;;;;;0.40;0.30;;;;;;;5.67;100.00;102594.66;5053891;28;20442;-71
2022/01/25 12:24:33;;;;;;;0.40;0.30;;;;;;;5.65;100.00;102592.19;5054254;28;20430;-71
2022/01/25 12:27:05;;;;;;;0.40;0.20;;;;;;;5.62;100.00;102591.78;5054175;28;20478;-71
2022/01/25 12:29:41;;;;;;;0.40;0.20;;;;;;;5.54;100.00;102582.16;5053895;28;20974;-71
2022/01/25 12:32:35;;;;;;;0.40;0.20;;;;;;;5.48;100.00;102586.50;5054115;28;20445;-71
2022/01/25 12:35:14;;;;;;;0.50;0.30;;;;;;;5.45;100.00;102576.22;5040054;28;20519;-71
2022/01/25 12:37:57;;;;;;;0.47;0.30;;;;;;;5.51;100.00;102582.56;5053712;28;20947;-71
2022/01/25 12:40:31;;;;;;;0.40;0.30;;;;;;;5.51;100.00;102574.50;5053840;28;20851;-71